createdAt,value
2019-03-13T00:00:11.667Z,8.90
2019-03-13T00:06:42.789Z,9.10
2019-03-13T00:10:07.437Z,9.00
2019-03-13T00:16:38.602Z,9.00
2019-03-13T00:23:09.984Z,8.80
2019-03-13T00:29:41.144Z,8.70
2019-03-13T00:36:12.216Z,8.30
2019-03-13T00:39:36.866Z,8.20
2019-03-13T00:46:07.824Z,8.60
2019-03-13T00:52:38.971Z,8.90
2019-03-13T00:59:09.299Z,9.00
2019-03-13T01:05:44.532Z,9.00
2019-03-13T01:12:15.461Z,9.00
2019-03-13T01:15:40.309Z,9.00
2019-03-13T01:22:11.361Z,8.70
2019-03-13T01:24:41.287Z,8.50
2019-03-13T01:28:05.733Z,8.40
2019-03-13T01:34:41.069Z,8.00
2019-03-13T01:41:11.776Z,7.70
2019-03-13T01:47:42.352Z,7.50
2019-03-13T01:51:06.720Z,7.40
2019-03-13T01:57:37.433Z,6.90
2019-03-13T02:01:01.705Z,6.90
2019-03-13T02:07:32.872Z,6.70
2019-03-13T02:10:57.199Z,6.40
2019-03-13T02:17:28.286Z,6.00
2019-03-13T02:20:52.849Z,5.80
2019-03-13T02:27:23.656Z,5.60
2019-03-13T02:33:54.128Z,5.60
2019-03-13T02:40:24.954Z,5.60
2019-03-13T02:46:55.505Z,5.50
2019-03-13T02:50:20.175Z,5.40
2019-03-13T02:56:50.943Z,5.20
2019-03-13T03:00:15.538Z,5.20
2019-03-13T03:06:47.275Z,5.00
2019-03-13T03:13:18.261Z,4.80
2019-03-13T03:16:42.785Z,4.70
2019-03-13T03:23:13.744Z,4.60
2019-03-13T03:26:30.604Z,4.60
2019-03-13T03:29:00.732Z,4.70
2019-03-13T03:35:31.207Z,4.60
2019-03-13T03:42:01.321Z,4.60
2019-03-13T03:48:31.341Z,4.60
2019-03-13T03:51:55.740Z,4.60
2019-03-13T03:58:29.034Z,4.50
2019-03-13T04:01:13.515Z,4.50
2019-03-13T04:11:43.971Z,4.40
2019-03-13T04:18:13.799Z,4.30
2019-03-13T04:21:37.693Z,4.30
2019-03-13T04:28:07.816Z,4.10
2019-03-13T04:34:37.952Z,4.00
2019-03-13T04:41:08.417Z,3.90
2019-03-13T04:47:39.638Z,3.60
2019-03-13T04:54:10.704Z,3.70
2019-03-13T05:00:41.315Z,3.60
2019-03-13T05:07:12.210Z,3.50
2019-03-13T05:13:43.454Z,3.50
2019-03-13T05:17:07.620Z,3.60
2019-03-13T05:23:38.251Z,3.50
2019-03-13T05:27:02.464Z,3.50
2019-03-13T05:29:32.554Z,3.50
2019-03-13T05:36:03.751Z,3.50
2019-03-13T05:42:34.710Z,3.40
2019-03-13T05:49:05.891Z,3.50
2019-03-13T05:55:36.895Z,3.70
2019-03-13T06:02:08.407Z,4.10
2019-03-13T06:08:39.002Z,4.20
2019-03-13T06:12:03.369Z,4.20
2019-03-13T06:18:34.198Z,4.10
2019-03-13T06:25:05.538Z,3.70
2019-03-13T06:28:19.697Z,3.70
2019-03-13T06:30:49.595Z,3.70
2019-03-13T06:37:20.135Z,3.70
2019-03-13T06:40:44.470Z,3.70
2019-03-13T06:47:14.536Z,3.80
2019-03-13T06:50:38.723Z,3.80
2019-03-13T06:57:08.874Z,4.00
2019-03-13T07:00:33.384Z,4.10
2019-03-13T07:07:11.144Z,4.20
2019-03-13T07:10:35.486Z,4.40
2019-03-13T07:17:08.203Z,4.80
2019-03-13T07:23:43.080Z,5.00
2019-03-13T07:27:07.532Z,5.00
2019-03-13T07:33:42.338Z,4.90
2019-03-13T07:36:14.416Z,5.00
2019-03-13T07:42:47.284Z,5.00
2019-03-13T07:49:22.485Z,5.10
2019-03-13T07:56:10.050Z,5.20
2019-03-13T08:02:42.878Z,5.50
2019-03-13T08:09:27.638Z,6.10
2019-03-13T08:12:52.107Z,6.10
2019-03-13T08:19:26.616Z,6.20
2019-03-13T08:22:51.179Z,6.00
2019-03-13T08:29:26.410Z,6.20
2019-03-13T08:36:01.401Z,6.60
2019-03-13T08:42:36.844Z,6.70
2019-03-13T08:46:01.472Z,6.70
2019-03-13T08:52:36.759Z,6.50
2019-03-13T08:59:09.243Z,6.20
2019-03-13T09:01:43.900Z,6.30
2019-03-13T09:04:22.927Z,6.50
2019-03-13T09:10:54.731Z,6.70
2019-03-13T09:17:29.319Z,6.60
2019-03-13T09:20:53.511Z,6.40
2019-03-13T09:27:37.171Z,6.40
2019-03-13T09:34:21.089Z,6.60
2019-03-13T09:36:52.748Z,6.70
2019-03-13T09:43:29.441Z,6.70
2019-03-13T09:50:07.811Z,7.20
2019-03-13T09:56:43.324Z,7.40
2019-03-13T10:03:15.843Z,7.10
2019-03-13T10:06:40.128Z,7.10
2019-03-13T10:13:28.340Z,7.30
2019-03-13T10:16:52.612Z,7.40
2019-03-13T10:23:28.098Z,7.00
2019-03-13T10:26:05.778Z,6.70
2019-03-13T10:29:30.272Z,6.60
2019-03-13T10:36:11.819Z,6.60
2019-03-13T10:38:49.455Z,7.10
2019-03-13T10:45:28.245Z,7.00
2019-03-13T10:52:12.831Z,7.00
2019-03-13T10:59:01.231Z,7.60
2019-03-13T11:02:25.645Z,8.00
2019-03-13T11:09:03.841Z,8.40
2019-03-13T11:15:52.034Z,8.20
2019-03-13T11:18:57.529Z,8.20
2019-03-13T11:25:32.923Z,8.20
2019-03-13T11:32:05.249Z,7.40
2019-03-13T11:38:41.300Z,6.10
2019-03-13T11:45:14.101Z,6.50
2019-03-13T11:51:52.500Z,7.10
2019-03-13T11:58:27.890Z,8.00
2019-03-13T12:05:02.958Z,7.80
2019-03-13T12:08:27.788Z,7.10
2019-03-13T12:15:00.726Z,6.70
2019-03-13T12:21:35.927Z,6.10
2019-03-13T12:28:08.059Z,5.00
2019-03-13T12:31:32.231Z,4.90
2019-03-13T12:38:07.394Z,5.10
2019-03-13T12:44:45.910Z,4.10
2019-03-13T12:48:16.614Z,3.50
2019-03-13T12:54:50.165Z,3.10
2019-03-13T12:57:21.618Z,3.30
2019-03-13T13:00:46.313Z,3.90
2019-03-13T13:07:31.039Z,5.20
2019-03-13T13:10:05.641Z,5.40
2019-03-13T13:16:54.878Z,5.70
2019-03-13T13:23:25.900Z,5.80
2019-03-13T13:29:57.560Z,6.00
2019-03-13T13:33:22.134Z,6.10
2019-03-13T13:39:53.008Z,6.30
2019-03-13T13:46:25.869Z,6.40
2019-03-13T13:49:59.179Z,6.80
2019-03-13T13:56:22.179Z,6.90
2019-03-13T14:02:53.147Z,6.90
2019-03-13T14:09:24.414Z,7.20
2019-03-13T14:15:54.825Z,7.30
2019-03-13T14:22:25.599Z,7.60
2019-03-13T14:25:50.223Z,7.80
2019-03-13T14:32:21.328Z,8.30
2019-03-13T14:35:46.433Z,9.00
2019-03-13T14:42:17.630Z,8.30
2019-03-13T14:48:48.538Z,7.70
2019-03-13T14:52:13.261Z,7.10
2019-03-13T14:58:44.018Z,7.20
2019-03-13T15:05:14.670Z,7.20
2019-03-13T15:11:45.813Z,6.90
2019-03-13T15:18:16.863Z,6.50
2019-03-13T15:21:41.449Z,5.40
2019-03-13T15:28:12.641Z,5.40
2019-03-13T15:31:37.156Z,5.80
2019-03-13T15:38:08.353Z,6.00
2019-03-13T15:44:40.932Z,5.80
2019-03-13T15:51:11.809Z,5.80
2019-03-13T15:57:42.521Z,5.80
2019-03-13T16:01:06.757Z,5.70
2019-03-13T16:07:37.975Z,5.60
2019-03-13T16:14:09.217Z,5.80
2019-03-13T16:17:33.750Z,5.70
2019-03-13T16:24:04.795Z,5.00
2019-03-13T16:30:46.626Z,3.30
2019-03-13T16:37:18.832Z,2.70
2019-03-13T16:43:50.079Z,2.40
2019-03-13T16:46:19.984Z,2.30
2019-03-13T16:52:51.547Z,2.50
2019-03-13T16:59:22.011Z,2.90
2019-03-13T17:02:46.830Z,3.00
2019-03-13T17:09:18.211Z,2.90
2019-03-13T17:12:44.731Z,2.80
2019-03-13T17:19:16.264Z,2.90
2019-03-13T17:22:43.306Z,3.10
2019-03-13T17:29:13.666Z,3.50
2019-03-13T17:32:38.575Z,3.50
2019-03-13T17:39:11.951Z,3.40
2019-03-13T17:45:43.002Z,3.40
2019-03-13T17:52:13.847Z,3.60
2019-03-13T17:58:44.818Z,3.70
2019-03-13T18:02:09.690Z,3.80
2019-03-13T18:08:40.621Z,4.00
2019-03-13T18:12:05.034Z,3.90
2019-03-13T18:18:44.948Z,4.00
2019-03-13T18:25:18.217Z,4.40
2019-03-13T18:28:42.887Z,4.30
2019-03-13T18:35:14.820Z,4.10
2019-03-13T18:41:45.694Z,3.90
2019-03-13T18:48:17.096Z,3.90
2019-03-13T18:54:48.054Z,3.90
2019-03-13T18:58:14.166Z,3.80
2019-03-13T19:04:44.735Z,3.90
2019-03-13T19:08:09.211Z,4.00
2019-03-13T19:14:39.955Z,4.20
2019-03-13T19:18:04.414Z,4.40
2019-03-13T19:24:35.603Z,4.70
2019-03-13T19:28:00.534Z,4.70
2019-03-13T19:34:31.523Z,4.80
2019-03-13T19:37:02.738Z,4.70
2019-03-13T19:43:33.746Z,4.70
2019-03-13T19:50:05.090Z,4.80
2019-03-13T19:56:35.313Z,4.90
2019-03-13T20:03:11.830Z,4.90
2019-03-13T20:09:42.514Z,4.90
2019-03-13T20:13:06.953Z,4.90
2019-03-13T20:19:38.246Z,4.80
2019-03-13T20:26:09.602Z,4.50
2019-03-13T20:29:33.799Z,4.40
2019-03-13T20:36:04.955Z,4.30
2019-03-13T20:42:36.371Z,4.30
2019-03-13T20:46:00.462Z,4.40
2019-03-13T20:52:31.347Z,4.40
2019-03-13T20:59:02.043Z,4.40
2019-03-13T21:05:32.851Z,4.40
2019-03-13T21:12:03.351Z,4.30
2019-03-13T21:18:33.847Z,4.30
2019-03-13T21:25:07.691Z,3.90
2019-03-13T21:28:15.142Z,3.80
2019-03-13T21:34:46.300Z,3.70
2019-03-13T21:38:13.167Z,3.60
2019-03-13T21:44:43.150Z,3.50
2019-03-13T21:51:13.755Z,3.60
2019-03-13T21:53:43.530Z,3.50
2019-03-13T22:00:25.493Z,3.50
2019-03-13T22:03:49.893Z,3.50
2019-03-13T22:10:21.865Z,3.50
2019-03-13T22:13:46.240Z,3.50
2019-03-13T22:20:17.562Z,3.40
2019-03-13T22:22:53.789Z,3.30
2019-03-13T22:29:24.613Z,3.30
2019-03-13T22:35:54.902Z,3.20
2019-03-13T22:39:19.435Z,3.20
2019-03-13T22:45:49.852Z,3.10
2019-03-13T22:49:14.127Z,3.10
2019-03-13T22:55:44.456Z,3.40
2019-03-13T23:02:18.524Z,3.60
2019-03-13T23:08:49.924Z,3.70
2019-03-13T23:15:21.034Z,3.90
2019-03-13T23:21:52.138Z,4.00
2019-03-13T23:25:16.958Z,4.10
2019-03-13T23:31:48.081Z,4.20
2019-03-13T23:35:12.185Z,4.30
2019-03-13T23:41:43.025Z,4.30
2019-03-13T23:48:14.701Z,4.40
2019-03-13T23:54:45.209Z,4.40
2019-03-13T23:57:15.321Z,4.50
